Time;durP1;ratioP1;P1;durP2;ratioP2;P2;SDS_P1;SDS_P2;PMS_P1;PMS_P2;Temp;Humidity;BMP_temperature;BMP_pressure;BME280_temperature;BME280_humidity;BME280_pressure;Samples;Min_cycle;Max_cycle;Signal;HPM_P1;HPM_P2
2021/12/16 00:02:00;;;;;;;4.03;3.63;;;;;;;;;;5031736;28;20072;-73
2021/12/16 00:07:24;;;;;;;3.67;3.35;;;;;;;;;;5013038;28;20032;-72
2021/12/16 00:10:08;;;;;;;5.10;3.55;;;;;;;;;;5024428;28;20045;-72
2021/12/16 00:31:55;;;;;;;5.05;3.95;;;;;;;;;;5030363;28;20448;-72
2021/12/16 00:34:22;;;;;;;4.38;3.90;;;;;;;;;;5023872;28;20034;-74
2021/12/16 00:36:48;;;;;;;4.10;3.70;;;;;;;;;;5013609;28;20062;-72
2021/12/16 00:39:16;;;;;;;5.03;3.70;;;;;;;;;;5006448;28;20057;-73
2021/12/16 00:41:44;;;;;;;5.70;4.43;;;;;;;;;;5029274;28;20017;-71
2021/12/16 00:44:22;;;;;;;5.18;4.20;;;;;;;;;;5031080;28;20017;-72
2021/12/16 00:54:42;;;;;;;4.60;4.00;;;;;;;;;;5025227;28;20382;-72
2021/12/16 00:57:12;;;;;;;5.30;4.18;;;;;;;;;;5023016;28;20025;-73
2021/12/16 00:59:41;;;;;;;5.00;4.00;;;;;;;;;;4996298;28;20030;-72
2021/12/16 01:05:18;;;;;;;4.78;4.00;;;;;;;;;;5034749;28;20031;-72
2021/12/16 01:08:01;;;;;;;5.72;3.95;;;;;;;;;;5012038;28;20062;-71
2021/12/16 01:35:27;;;;;;;4.57;3.45;;;;;;;;;;5031952;28;20155;-73
2021/12/16 01:40:50;;;;;;;3.53;3.08;;;;;;;;;;5030062;28;20108;-73
2021/12/16 01:46:24;;;;;;;4.13;3.67;;;;;;;;;;5027493;28;20037;-72
2021/12/16 01:51:34;;;;;;;3.47;2.90;;;;;;;;;;5026374;28;20060;-72
2021/12/16 01:57:10;;;;;;;3.47;2.80;;;;;;;;;;5033391;28;20082;-72
2021/12/16 01:59:38;;;;;;;4.22;3.17;;;;;;;;;;5022087;28;20511;-72
2021/12/16 02:02:14;;;;;;;3.88;3.30;;;;;;;;;;5032216;28;20042;-70
2021/12/16 02:05:07;;;;;;;3.10;2.80;;;;;;;;;;5025678;28;20378;-72
2021/12/16 02:07:46;;;;;;;3.00;2.70;;;;;;;;;;5013834;28;20026;-72
2021/12/16 02:10:14;;;;;;;3.15;2.78;;;;;;;;;;5023540;28;20049;-70
2021/12/16 02:13:00;;;;;;;3.90;3.28;;;;;;;;;;5019326;28;20101;-72
2021/12/16 02:29:20;;;;;;;2.58;2.38;;;;;;;;;;5039327;28;20095;-73
2021/12/16 02:37:16;;;;;;;2.83;2.17;;;;;;;;;;4983768;28;20073;-72
2021/12/16 02:39:42;;;;;;;3.28;2.97;;;;;;;;;;5025041;28;20458;-70
2021/12/16 02:42:13;;;;;;;3.35;2.67;;;;;;;;;;5027708;28;20017;-73
2021/12/16 02:48:28;;;;;;;3.13;2.70;;;;;;;;;;5029538;28;20064;-73
2021/12/16 02:50:10;;;;;;;2.63;2.42;;;;;;;;;;5030708;28;20067;-70
2021/12/16 02:52:36;;;;;;;2.83;2.53;;;;;;;;;;5028125;28;20046;-73
2021/12/16 02:55:01;;;;;;;3.75;2.90;;;;;;;;;;5029048;28;20040;-72
2021/12/16 02:57:27;;;;;;;2.97;2.67;;;;;;;;;;5015152;28;20053;-72
2021/12/16 02:59:53;;;;;;;3.53;2.88;;;;;;;;;;5029299;28;20470;-73
2021/12/16 03:02:19;;;;;;;5.25;2.95;;;;;;;;;;5004718;28;20026;-72
2021/12/16 03:04:47;;;;;;;3.42;3.13;;;;;;;;;;5031013;28;20144;-72
2021/12/16 03:07:14;;;;;;;4.63;2.78;;;;;;;;;;5027293;28;20377;-73
2021/12/16 03:15:06;;;;;;;5.53;3.70;;;;;;;;;;5000180;28;20452;-73
2021/12/16 03:20:51;;;;;;;4.03;3.42;;;;;;;;;;4951531;29;20057;-74
2021/12/16 03:26:41;;;;;;;5.88;3.70;;;;;;;;;;4954013;28;20038;-72
2021/12/16 03:29:16;;;;;;;4.97;3.92;;;;;;;;;;4945005;29;20459;-72
2021/12/16 03:32:11;;;;;;;7.63;4.65;;;;;;;;;;4951426;29;20031;-71
2021/12/16 03:37:16;;;;;;;6.82;4.45;;;;;;;;;;4949288;29;20035;-72
2021/12/16 03:40:01;;;;;;;4.63;3.75;;;;;;;;;;4949340;28;20066;-71
2021/12/16 03:42:32;;;;;;;5.60;4.35;;;;;;;;;;4954734;28;20035;-73
2021/12/16 03:45:06;;;;;;;5.32;4.50;;;;;;;;;;4950017;29;20027;-73
2021/12/16 03:47:39;;;;;;;5.40;4.68;;;;;;;;;;4950246;29;20019;-71
2021/12/16 03:50:06;;;;;;;6.43;5.55;;;;;;;;;;4951619;29;20113;-73
2021/12/16 03:52:32;;;;;;;8.32;5.22;;;;;;;;;;4932837;29;20058;-72
2021/12/16 03:54:57;;;;;;;6.80;5.18;;;;;;;;;;4946918;29;20055;-73
2021/12/16 03:57:24;;;;;;;8.75;5.65;;;;;;;;;;4974817;28;20481;-71
2021/12/16 03:59:50;;;;;;;6.60;5.55;;;;;;;;;;5035295;28;20486;-73
2021/12/16 04:02:26;;;;;;;7.50;5.53;;;;;;;;;;5013513;28;20232;-71
2021/12/16 04:04:51;;;;;;;7.85;5.72;;;;;;;;;;5030050;28;20029;-71
2021/12/16 04:07:21;;;;;;;8.60;6.35;;;;;;;;;;4995954;28;20393;-72
2021/12/16 04:09:47;;;;;;;9.25;6.72;;;;;;;;;;5026437;28;20043;-74
2021/12/16 04:12:18;;;;;;;7.63;6.20;;;;;;;;;;5019745;28;20073;-71
2021/12/16 04:14:43;;;;;;;9.32;7.38;;;;;;;;;;5029030;28;20032;-72
2021/12/16 04:17:10;;;;;;;9.48;6.93;;;;;;;;;;5010292;28;20021;-72
2021/12/16 04:19:35;;;;;;;8.52;6.72;;;;;;;;;;5002781;28;20034;-71
2021/12/16 04:22:16;;;;;;;11.20;7.28;;;;;;;;;;5013322;28;20024;-71
2021/12/16 04:24:41;;;;;;;11.63;8.07;;;;;;;;;;5031321;28;20481;-70
2021/12/16 04:27:07;;;;;;;10.70;8.43;;;;;;;;;;5008525;28;20022;-72
2021/12/16 04:29:32;;;;;;;10.48;8.38;;;;;;;;;;5011759;28;20052;-71
2021/12/16 04:31:59;;;;;;;10.68;7.80;;;;;;;;;;5011761;28;20030;-73
2021/12/16 04:34:24;;;;;;;11.82;9.23;;;;;;;;;;5031065;28;20544;-73
2021/12/16 04:36:49;;;;;;;11.75;8.80;;;;;;;;;;5016642;28;21567;-72
2021/12/16 04:39:17;;;;;;;12.30;9.27;;;;;;;;;;5026158;28;20037;-72
2021/12/16 04:41:42;;;;;;;11.77;9.20;;;;;;;;;;5032391;28;20018;-71
2021/12/16 04:44:09;;;;;;;12.60;8.90;;;;;;;;;;5009787;28;20033;-73
2021/12/16 04:46:34;;;;;;;13.57;9.38;;;;;;;;;;5034683;28;20029;-71
2021/12/16 04:49:00;;;;;;;12.90;9.60;;;;;;;;;;5016738;28;20033;-72
2021/12/16 04:51:26;;;;;;;13.52;9.85;;;;;;;;;;5033541;28;20025;-72
2021/12/16 04:53:52;;;;;;;14.65;9.55;;;;;;;;;;5034008;28;20060;-72
2021/12/16 04:56:18;;;;;;;11.50;8.98;;;;;;;;;;5024673;28;20054;-72
2021/12/16 04:58:44;;;;;;;13.35;9.63;;;;;;;;;;5019527;28;20072;-71
2021/12/16 05:01:10;;;;;;;16.48;10.40;;;;;;;;;;5032642;28;20068;-73
2021/12/16 05:03:35;;;;;;;13.10;9.80;;;;;;;;;;5032438;28;20089;-72
2021/12/16 05:06:01;;;;;;;14.68;10.45;;;;;;;;;;5033655;28;20017;-72
2021/12/16 05:08:26;;;;;;;12.85;9.95;;;;;;;;;;5027225;28;20029;-72
2021/12/16 05:10:54;;;;;;;14.50;10.48;;;;;;;;;;5016394;28;20021;-70
2021/12/16 05:13:23;;;;;;;15.02;10.68;;;;;;;;;;4995086;28;20022;-72
2021/12/16 05:15:48;;;;;;;14.75;10.55;;;;;;;;;;5008615;28;20044;-72
2021/12/16 05:18:20;;;;;;;16.00;10.80;;;;;;;;;;5032343;28;20029;-72
2021/12/16 05:20:46;;;;;;;14.75;11.02;;;;;;;;;;5016400;28;20109;-72
2021/12/16 05:26:17;;;;;;;15.63;10.80;;;;;;;;;;5030888;28;20164;-72
2021/12/16 05:28:44;;;;;;;13.65;9.82;;;;;;;;;;5011015;28;20052;-72
2021/12/16 05:31:09;;;;;;;13.57;9.80;;;;;;;;;;5034345;28;20183;-72
2021/12/16 05:33:35;;;;;;;14.00;9.95;;;;;;;;;;5027828;28;20560;-73
2021/12/16 05:36:00;;;;;;;16.58;10.27;;;;;;;;;;5015077;28;20697;-73
2021/12/16 05:38:27;;;;;;;11.60;8.68;;;;;;;;;;5027446;28;20053;-73
2021/12/16 05:40:53;;;;;;;13.07;9.25;;;;;;;;;;5010116;28;20534;-72
2021/12/16 05:43:22;;;;;;;11.18;8.60;;;;;;;;;;5020408;28;20116;-72
2021/12/16 05:45:48;;;;;;;11.27;7.88;;;;;;;;;;5033212;28;20016;-72
2021/12/16 05:48:14;;;;;;;9.70;7.65;;;;;;;;;;5031482;28;20394;-72
2021/12/16 05:50:42;;;;;;;10.63;7.82;;;;;;;;;;5032190;28;20041;-73
2021/12/16 05:53:07;;;;;;;12.65;8.18;;;;;;;;;;5014660;28;20036;-73
2021/12/16 05:55:32;;;;;;;11.52;8.00;;;;;;;;;;5042103;28;20092;-72
2021/12/16 05:57:59;;;;;;;11.32;8.52;;;;;;;;;;5018812;28;20066;-73
2021/12/16 06:00:29;;;;;;;10.80;7.57;;;;;;;;;;5025974;28;20075;-74
2021/12/16 06:02:54;;;;;;;10.70;7.32;;;;;;;;;;5014920;28;20112;-73
2021/12/16 06:05:19;;;;;;;8.57;7.07;;;;;;;;;;5015020;28;20049;-73
2021/12/16 06:07:45;;;;;;;10.25;6.82;;;;;;;;;;5030377;28;20521;-72
2021/12/16 06:10:28;;;;;;;9.30;6.93;;;;;;;;;;5010780;28;20083;-71
2021/12/16 06:12:54;;;;;;;11.55;7.63;;;;;;;;;;5020881;28;20018;-72
2021/12/16 06:15:35;;;;;;;9.88;7.68;;;;;;;;;;5014504;28;20524;-72
2021/12/16 06:29:10;;;;;;;11.43;8.13;;;;;;;;;;4938952;29;20035;-70
2021/12/16 06:31:35;;;;;;;12.18;8.48;;;;;;;;;;4930938;29;20042;-74
2021/12/16 06:34:00;;;;;;;11.38;8.73;;;;;;;;;;4934874;29;20387;-71
2021/12/16 06:36:26;;;;;;;11.82;8.63;;;;;;;;;;4952406;28;20031;-74
2021/12/16 06:38:51;;;;;;;10.77;8.50;;;;;;;;;;4893942;29;1081947;-71
2021/12/16 06:41:17;;;;;;;11.88;9.27;;;;;;;;;;4952362;28;20039;-74
2021/12/16 06:43:43;;;;;;;14.10;9.63;;;;;;;;;;4951163;29;20041;-71
2021/12/16 06:46:13;;;;;;;10.23;7.93;;;;;;;;;;4952038;29;20035;-71
2021/12/16 06:48:41;;;;;;;12.48;8.93;;;;;;;;;;4933909;29;20035;-73
2021/12/16 06:51:17;;;;;;;12.57;9.27;;;;;;;;;;4952083;29;20393;-73
2021/12/16 06:53:53;;;;;;;11.10;8.95;;;;;;;;;;4940527;29;20032;-72
2021/12/16 06:56:28;;;;;;;12.75;9.68;;;;;;;;;;4943986;29;20038;-72
2021/12/16 06:59:07;;;;;;;12.23;9.15;;;;;;;;;;4949382;28;20150;-68
2021/12/16 07:04:02;;;;;;;13.70;10.27;;;;;;;;;;4956354;28;20038;-68
2021/12/16 07:06:29;;;;;;;16.00;10.63;;;;;;;;;;5024082;28;20071;-69
2021/12/16 07:08:56;;;;;;;14.05;10.52;;;;;;;;;;5008685;28;20029;-69
2021/12/16 07:11:22;;;;;;;15.20;10.45;;;;;;;;;;5031542;28;20087;-68
2021/12/16 07:13:57;;;;;;;14.57;9.93;;;;;;;;;;5028501;28;20466;-69
2021/12/16 07:16:22;;;;;;;12.55;9.85;;;;;;;;;;5024399;28;20737;-68
2021/12/16 07:18:48;;;;;;;14.02;10.30;;;;;;;;;;5031641;28;20032;-68
2021/12/16 07:21:13;;;;;;;15.93;11.65;;;;;;;;;;5032436;28;20017;-69
2021/12/16 07:23:38;;;;;;;13.80;10.07;;;;;;;;;;5031821;28;20030;-68
2021/12/16 07:26:04;;;;;;;12.52;9.70;;;;;;;;;;5013354;28;20030;-68
2021/12/16 07:28:29;;;;;;;15.52;10.60;;;;;;;;;;5032103;28;20025;-68
2021/12/16 07:30:54;;;;;;;14.32;9.98;;;;;;;;;;5008129;28;20378;-69
2021/12/16 07:33:19;;;;;;;14.65;10.43;;;;;;;;;;5024779;28;20540;-69
2021/12/16 07:35:45;;;;;;;13.50;10.48;;;;;;;;;;5014502;28;20128;-70
2021/12/16 07:38:10;;;;;;;16.10;10.32;;;;;;;;;;5024886;28;20045;-68
2021/12/16 07:40:36;;;;;;;13.10;9.90;;;;;;;;;;4996580;28;20407;-69
2021/12/16 07:45:33;;;;;;;11.68;9.65;;;;;;;;;;5031467;28;20017;-69
2021/12/16 07:47:58;;;;;;;12.38;9.00;;;;;;;;;;5031409;28;20033;-70
2021/12/16 07:50:24;;;;;;;14.60;10.57;;;;;;;;;;5031614;28;20079;-69
2021/12/16 07:52:50;;;;;;;14.20;10.52;;;;;;;;;;5014330;28;20036;-70
2021/12/16 07:55:17;;;;;;;13.82;10.02;;;;;;;;;;5031448;28;20047;-69
2021/12/16 07:57:42;;;;;;;12.98;9.32;;;;;;;;;;5030261;28;20367;-69
2021/12/16 08:00:13;;;;;;;13.32;9.65;;;;;;;;;;5013217;28;20049;-68
2021/12/16 08:02:38;;;;;;;14.98;10.60;;;;;;;;;;5031481;28;20175;-68
2021/12/16 08:05:05;;;;;;;16.73;10.60;;;;;;;;;;5013156;28;20529;-66
2021/12/16 08:07:30;;;;;;;13.80;9.88;;;;;;;;;;5031190;28;20021;-66
2021/12/16 08:09:56;;;;;;;15.25;10.77;;;;;;;;;;5026441;28;20484;-66
2021/12/16 08:12:21;;;;;;;17.67;11.88;;;;;;;;;;5030651;28;20401;-65
2021/12/16 08:14:47;;;;;;;14.57;11.52;;;;;;;;;;5031034;28;20083;-65
2021/12/16 08:17:13;;;;;;;17.85;12.15;;;;;;;;;;5030526;28;20029;-65
2021/12/16 08:19:38;;;;;;;17.20;11.65;;;;;;;;;;5031477;28;20090;-66
2021/12/16 08:22:04;;;;;;;16.38;12.25;;;;;;;;;;5030596;28;20397;-66
2021/12/16 08:24:29;;;;;;;17.23;12.45;;;;;;;;;;5014016;28;20392;-64
2021/12/16 08:26:54;;;;;;;17.08;12.02;;;;;;;;;;5012079;28;20021;-69
2021/12/16 08:29:20;;;;;;;18.73;13.40;;;;;;;;;;5012582;28;20033;-72
2021/12/16 08:31:45;;;;;;;20.75;13.88;;;;;;;;;;5010605;28;20048;-69
2021/12/16 08:34:12;;;;;;;20.33;13.82;;;;;;;;;;5030733;28;20104;-69
2021/12/16 08:36:37;;;;;;;19.38;13.63;;;;;;;;;;5031022;28;20029;-69
2021/12/16 08:39:09;;;;;;;19.95;13.65;;;;;;;;;;5030246;28;20032;-68
2021/12/16 08:41:37;;;;;;;20.63;13.57;;;;;;;;;;5020505;28;20485;-67
2021/12/16 08:44:02;;;;;;;17.80;12.55;;;;;;;;;;5044964;28;20057;-70
2021/12/16 08:46:30;;;;;;;19.73;14.00;;;;;;;;;;5032225;28;20096;-70
2021/12/16 08:48:55;;;;;;;17.60;12.80;;;;;;;;;;5014734;28;20362;-72
2021/12/16 08:51:23;;;;;;;21.10;14.05;;;;;;;;;;5026663;28;20092;-70
2021/12/16 08:53:48;;;;;;;19.80;13.23;;;;;;;;;;5028430;28;20026;-73
2021/12/16 08:56:14;;;;;;;19.08;13.38;;;;;;;;;;5018062;28;20037;-72
2021/12/16 08:58:40;;;;;;;17.88;13.75;;;;;;;;;;5030504;28;20051;-72
2021/12/16 09:01:10;;;;;;;21.83;14.48;;;;;;;;;;5031246;28;20029;-72
2021/12/16 09:03:35;;;;;;;18.65;12.88;;;;;;;;;;5012240;28;20091;-70
2021/12/16 09:06:01;;;;;;;20.85;14.38;;;;;;;;;;5011143;28;20496;-73
2021/12/16 09:08:27;;;;;;;20.48;13.73;;;;;;;;;;5025806;28;20037;-74
2021/12/16 09:10:53;;;;;;;20.55;14.25;;;;;;;;;;5002340;28;20022;-73
2021/12/16 09:13:18;;;;;;;18.60;14.27;;;;;;;;;;4995813;28;20032;-71
2021/12/16 09:15:45;;;;;;;20.63;13.80;;;;;;;;;;5031297;28;20497;-77
2021/12/16 09:18:11;;;;;;;18.88;13.82;;;;;;;;;;5030570;28;20067;-72
2021/12/16 09:20:37;;;;;;;20.27;14.45;;;;;;;;;;5024882;28;20390;-74
2021/12/16 09:23:03;;;;;;;21.42;14.63;;;;;;;;;;5014551;28;20030;-73
2021/12/16 09:25:28;;;;;;;21.75;14.50;;;;;;;;;;5034538;28;20020;-74
2021/12/16 09:27:53;;;;;;;22.35;14.57;;;;;;;;;;5016736;28;20513;-75
2021/12/16 09:30:20;;;;;;;21.63;14.23;;;;;;;;;;5033882;28;20043;-74
2021/12/16 09:32:46;;;;;;;21.77;14.57;;;;;;;;;;5034407;28;20230;-75
2021/12/16 09:35:18;;;;;;;21.55;13.98;;;;;;;;;;5016040;28;20532;-75
2021/12/16 09:37:43;;;;;;;18.92;14.25;;;;;;;;;;5008201;28;20040;-75
2021/12/16 09:40:10;;;;;;;21.83;15.10;;;;;;;;;;5029998;28;20386;-75
2021/12/16 09:42:37;;;;;;;19.33;15.18;;;;;;;;;;5015998;28;20390;-74
2021/12/16 09:45:03;;;;;;;20.90;15.23;;;;;;;;;;5015816;28;20030;-74
2021/12/16 09:47:29;;;;;;;21.40;15.40;;;;;;;;;;5016040;28;20490;-73
2021/12/16 09:49:54;;;;;;;22.60;15.40;;;;;;;;;;5016604;28;20060;-74
2021/12/16 09:52:19;;;;;;;20.63;15.02;;;;;;;;;;4999733;28;20438;-76
2021/12/16 09:54:45;;;;;;;22.95;15.23;;;;;;;;;;5015843;28;20052;-74
2021/12/16 09:57:11;;;;;;;25.58;16.23;;;;;;;;;;5003682;28;20568;-72
2021/12/16 09:59:36;;;;;;;24.08;15.93;;;;;;;;;;5033679;28;20132;-74
2021/12/16 10:02:04;;;;;;;21.73;15.43;;;;;;;;;;5015889;28;20105;-74
2021/12/16 10:04:31;;;;;;;23.90;15.98;;;;;;;;;;5033580;28;20025;-73
2021/12/16 10:06:57;;;;;;;22.50;16.52;;;;;;;;;;5033851;28;20017;-74
2021/12/16 10:09:23;;;;;;;24.13;16.80;;;;;;;;;;5030504;28;20057;-75
2021/12/16 10:11:49;;;;;;;26.92;16.80;;;;;;;;;;5032928;28;20079;-75
2021/12/16 10:14:30;;;;;;;24.48;16.30;;;;;;;;;;5039447;28;20021;-75
2021/12/16 10:19:41;;;;;;;27.08;19.00;;;;;;;;;;5022335;28;20064;-72
2021/12/16 10:22:24;;;;;;;28.05;18.70;;;;;;;;;;5032820;28;20470;-73
2021/12/16 10:24:51;;;;;;;27.35;18.17;;;;;;;;;;4996182;28;20425;-75
2021/12/16 10:27:18;;;;;;;27.05;19.15;;;;;;;;;;5025643;28;20032;-73
2021/12/16 10:29:51;;;;;;;26.75;18.13;;;;;;;;;;5014592;28;20111;-74
2021/12/16 10:32:36;;;;;;;29.75;18.33;;;;;;;;;;5014280;28;20122;-75
2021/12/16 10:35:06;;;;;;;33.05;19.73;;;;;;;;;;5009512;28;20021;-74
2021/12/16 10:37:34;;;;;;;31.67;19.73;;;;;;;;;;5010921;28;20042;-74
2021/12/16 10:40:18;;;;;;;37.63;21.08;;;;;;;;;;5007930;28;20080;-75
2021/12/16 10:42:44;;;;;;;34.90;20.23;;;;;;;;;;5006816;28;20022;-74
2021/12/16 10:45:24;;;;;;;34.55;19.55;;;;;;;;;;5011410;28;20056;-74
2021/12/16 10:48:08;;;;;;;32.67;20.33;;;;;;;;;;5008328;28;20112;-73
2021/12/16 10:50:48;;;;;;;39.85;21.92;;;;;;;;;;5005921;28;20052;-74
2021/12/16 10:53:13;;;;;;;34.30;19.85;;;;;;;;;;5010772;28;20037;-73
2021/12/16 10:55:55;;;;;;;35.47;21.25;;;;;;;;;;5013101;28;20030;-74
2021/12/16 10:58:20;;;;;;;38.08;21.63;;;;;;;;;;5009422;28;20022;-74
2021/12/16 11:00:46;;;;;;;36.97;21.70;;;;;;;;;;5006402;28;20407;-75
2021/12/16 11:03:31;;;;;;;41.00;21.88;;;;;;;;;;5012188;28;20169;-74
2021/12/16 11:05:56;;;;;;;39.20;21.40;;;;;;;;;;5011275;28;20021;-73
2021/12/16 11:08:21;;;;;;;42.95;22.88;;;;;;;;;;5006833;28;20033;-73
2021/12/16 11:10:47;;;;;;;42.90;22.13;;;;;;;;;;5011145;28;20117;-75
2021/12/16 11:13:14;;;;;;;41.70;22.17;;;;;;;;;;4994826;28;20030;-73
2021/12/16 11:15:44;;;;;;;35.78;22.13;;;;;;;;;;4994732;28;20570;-75
2021/12/16 11:18:09;;;;;;;40.53;21.65;;;;;;;;;;5011753;28;20065;-75
2021/12/16 11:20:34;;;;;;;45.75;23.30;;;;;;;;;;5011800;28;20052;-75
2021/12/16 11:23:04;;;;;;;40.72;21.65;;;;;;;;;;5010359;28;20025;-73
2021/12/16 11:25:52;;;;;;;42.20;22.25;;;;;;;;;;5010902;28;20376;-74
2021/12/16 11:28:22;;;;;;;42.67;21.98;;;;;;;;;;5012650;28;20156;-73
2021/12/16 11:30:50;;;;;;;38.42;21.63;;;;;;;;;;5007096;28;20386;-74
2021/12/16 11:33:16;;;;;;;33.90;19.05;;;;;;;;;;5012438;28;20030;-73
2021/12/16 11:35:53;;;;;;;40.80;21.27;;;;;;;;;;5011424;28;20022;-71
2021/12/16 11:38:30;;;;;;;37.05;21.15;;;;;;;;;;5007283;28;20526;-74
2021/12/16 11:41:01;;;;;;;39.97;20.00;;;;;;;;;;5002324;28;20022;-74
2021/12/16 11:43:46;;;;;;;33.40;19.50;;;;;;;;;;5001226;28;20030;-73
2021/12/16 11:46:18;;;;;;;35.08;19.25;;;;;;;;;;5011964;28;20093;-73
2021/12/16 11:48:43;;;;;;;39.63;20.73;;;;;;;;;;5010692;28;20128;-73
2021/12/16 11:51:11;;;;;;;46.90;22.02;;;;;;;;;;5010211;28;20385;-73
2021/12/16 11:53:38;;;;;;;35.75;19.73;;;;;;;;;;4991317;28;20026;-73
2021/12/16 11:56:06;;;;;;;47.00;21.25;;;;;;;;;;4997947;28;20100;-76
2021/12/16 11:58:32;;;;;;;44.95;20.95;;;;;;;;;;4992353;28;20474;-73
2021/12/16 12:00:58;;;;;;;42.40;21.38;;;;;;;;;;4975540;28;20030;-75
2021/12/16 12:03:31;;;;;;;51.38;21.25;;;;;;;;;;5003176;28;20022;-74
2021/12/16 12:05:57;;;;;;;41.75;20.92;;;;;;;;;;5012481;28;20429;-75
2021/12/16 12:08:27;;;;;;;45.47;21.48;;;;;;;;;;5009949;28;20071;-73
2021/12/16 12:10:58;;;;;;;40.45;19.95;;;;;;;;;;5010130;28;20076;-73
2021/12/16 12:13:25;;;;;;;33.58;17.90;;;;;;;;;;5008807;28;20414;-73
2021/12/16 12:15:52;;;;;;;41.60;18.70;;;;;;;;;;5010500;28;20018;-74
2021/12/16 12:18:31;;;;;;;37.25;17.95;;;;;;;;;;5010409;28;20470;-73
2021/12/16 12:21:13;;;;;;;36.58;19.25;;;;;;;;;;5012532;28;20018;-73
2021/12/16 12:23:39;;;;;;;34.20;17.77;;;;;;;;;;5011178;28;20052;-73
2021/12/16 12:26:04;;;;;;;34.35;18.92;;;;;;;;;;5010343;28;20061;-74
2021/12/16 12:28:29;;;;;;;32.10;15.68;;;;;;;;;;5011270;28;20033;-74
2021/12/16 12:30:55;;;;;;;35.28;17.42;;;;;;;;;;4994261;28;20077;-73
2021/12/16 12:33:23;;;;;;;33.00;17.15;;;;;;;;;;5005555;28;20029;-72
2021/12/16 12:35:48;;;;;;;37.17;17.77;;;;;;;;;;5001101;28;20057;-74
2021/12/16 12:38:13;;;;;;;36.15;17.65;;;;;;;;;;4999589;28;20116;-75
2021/12/16 12:40:40;;;;;;;38.65;18.33;;;;;;;;;;5005883;28;20060;-74
2021/12/16 12:43:06;;;;;;;38.17;18.20;;;;;;;;;;5006434;28;20117;-75
2021/12/16 12:45:35;;;;;;;31.42;17.50;;;;;;;;;;5010008;28;20034;-72
2021/12/16 12:48:00;;;;;;;36.90;17.25;;;;;;;;;;5008589;28;20053;-75
2021/12/16 12:50:26;;;;;;;30.42;15.45;;;;;;;;;;4993123;28;20022;-74
2021/12/16 12:52:53;;;;;;;26.83;15.43;;;;;;;;;;4996665;28;20036;-73
2021/12/16 12:55:20;;;;;;;29.20;15.73;;;;;;;;;;4993145;28;20021;-74
2021/12/16 12:57:46;;;;;;;45.83;16.77;;;;;;;;;;5011844;28;20096;-73
2021/12/16 13:00:31;;;;;;;27.42;14.40;;;;;;;;;;5014908;28;20026;-72
2021/12/16 13:03:01;;;;;;;35.92;16.52;;;;;;;;;;5013607;28;20076;-73
2021/12/16 13:05:30;;;;;;;29.60;14.43;;;;;;;;;;5000417;28;20026;-73
2021/12/16 13:07:58;;;;;;;27.48;14.15;;;;;;;;;;5009741;28;20015;-73
2021/12/16 13:10:27;;;;;;;24.38;12.75;;;;;;;;;;5002811;28;20022;-74
2021/12/16 13:13:26;;;;;;;24.20;12.68;;;;;;;;;;5006373;28;20033;-73
2021/12/16 13:24:54;;;;;;;24.15;13.48;;;;;;;;;;4953048;29;20444;-74
2021/12/16 13:27:29;;;;;;;23.10;12.15;;;;;;;;;;4954183;28;20110;-74
2021/12/16 13:30:16;;;;;;;18.27;11.50;;;;;;;;;;4953054;29;20034;-73
2021/12/16 13:32:47;;;;;;;;;;;;;;;;;;4954414;29;20102;-74
2021/12/16 13:37:50;;;;;;;16.35;8.85;;;;;;;;;;4951771;28;20057;-74
2021/12/16 13:40:22;;;;;;;18.30;9.63;;;;;;;;;;4950089;28;20027;-74
2021/12/16 13:42:55;;;;;;;16.00;9.98;;;;;;;;;;4950752;29;20497;-74
2021/12/16 13:45:30;;;;;;;15.15;9.93;;;;;;;;;;4953315;29;20034;-73
2021/12/16 13:59:46;;;;;;;13.57;8.95;;;;;;;;;;5009807;28;20056;-72
2021/12/16 14:10:11;;;;;;;12.75;8.23;;;;;;;;;;5015396;28;20437;-74
2021/12/16 14:15:18;;;;;;;12.25;8.93;;;;;;;;;;5033272;28;20038;-74
2021/12/16 14:23:31;;;;;;;13.80;9.05;;;;;;;;;;4994161;28;20173;-74
2021/12/16 14:45:41;;;;;;;20.15;11.02;;;;;;;;;;5032204;28;20025;-73
2021/12/16 14:50:58;;;;;;;17.60;9.85;;;;;;;;;;5032055;28;20040;-73
2021/12/16 14:53:23;;;;;;;18.70;9.90;;;;;;;;;;5015005;28;20084;-75
2021/12/16 14:55:50;;;;;;;11.82;7.68;;;;;;;;;;5032366;28;20010;-74
2021/12/16 14:58:21;;;;;;;14.95;9.45;;;;;;;;;;5032563;28;20033;-78
2021/12/16 15:00:51;;;;;;;15.23;9.20;;;;;;;;;;5031819;28;20052;-77
2021/12/16 15:03:17;;;;;;;17.27;9.43;;;;;;;;;;5013805;28;20055;-78
2021/12/16 15:05:46;;;;;;;14.48;9.32;;;;;;;;;;5012627;28;20117;-77
2021/12/16 15:08:26;;;;;;;14.68;9.10;;;;;;;;;;5019581;28;20496;-78
2021/12/16 15:10:51;;;;;;;19.10;10.30;;;;;;;;;;5013775;28;20075;-78
2021/12/16 15:13:24;;;;;;;18.15;9.85;;;;;;;;;;4997769;28;20494;-78
2021/12/16 15:37:40;;;;;;;18.90;10.23;;;;;;;;;;5030885;28;20049;-76
2021/12/16 15:42:55;;;;;;;15.98;9.60;;;;;;;;;;5031609;28;20105;-78
2021/12/16 15:45:39;;;;;;;17.00;10.05;;;;;;;;;;4990263;28;20058;-76
2021/12/16 15:48:09;;;;;;;17.88;10.63;;;;;;;;;;5026741;28;20025;-77
2021/12/16 15:50:54;;;;;;;18.50;11.07;;;;;;;;;;5003185;28;20104;-77
2021/12/16 15:53:21;;;;;;;19.65;10.90;;;;;;;;;;5031589;28;20029;-79
2021/12/16 15:56:05;;;;;;;17.48;10.55;;;;;;;;;;5030574;28;20059;-77
2021/12/16 15:58:31;;;;;;;17.83;10.20;;;;;;;;;;5012723;28;20057;-76
2021/12/16 16:01:03;;;;;;;18.00;9.95;;;;;;;;;;5031232;28;20545;-78
2021/12/16 16:03:29;;;;;;;21.42;11.15;;;;;;;;;;5013916;28;20021;-77
2021/12/16 16:05:56;;;;;;;19.02;10.88;;;;;;;;;;5030787;28;20040;-78
2021/12/16 16:08:23;;;;;;;16.48;10.50;;;;;;;;;;5025485;28;20529;-77
2021/12/16 16:10:52;;;;;;;18.27;10.55;;;;;;;;;;5011636;28;20021;-77
2021/12/16 16:13:19;;;;;;;18.67;11.50;;;;;;;;;;5029504;28;20067;-74
2021/12/16 16:15:45;;;;;;;19.17;11.30;;;;;;;;;;5013446;28;20075;-73
2021/12/16 16:18:15;;;;;;;17.67;11.90;;;;;;;;;;5031144;28;20033;-74
2021/12/16 16:20:43;;;;;;;16.92;10.82;;;;;;;;;;5022193;28;20021;-73
2021/12/16 16:23:10;;;;;;;14.63;10.70;;;;;;;;;;5030793;28;20485;-74
2021/12/16 16:25:36;;;;;;;17.80;11.50;;;;;;;;;;5030501;28;20021;-74
2021/12/16 16:28:02;;;;;;;19.52;12.50;;;;;;;;;;5031115;28;20148;-73
2021/12/16 16:30:28;;;;;;;18.13;11.20;;;;;;;;;;5027029;28;20028;-72
2021/12/16 16:32:57;;;;;;;18.83;11.30;;;;;;;;;;5033118;28;20025;-74
2021/12/16 16:35:23;;;;;;;18.95;12.30;;;;;;;;;;5033029;28;20504;-73
2021/12/16 16:37:48;;;;;;;20.88;12.57;;;;;;;;;;5012506;28;20041;-73
2021/12/16 16:40:13;;;;;;;19.52;13.43;;;;;;;;;;5029083;28;20472;-73
2021/12/16 16:42:40;;;;;;;21.75;13.77;;;;;;;;;;5014239;28;20049;-73
2021/12/16 16:45:08;;;;;;;19.90;11.82;;;;;;;;;;5016688;28;20021;-72
2021/12/16 16:47:46;;;;;;;18.17;12.38;;;;;;;;;;5017436;28;20022;-73
2021/12/16 16:50:11;;;;;;;20.45;13.60;;;;;;;;;;5010750;28;20026;-73
2021/12/16 16:52:39;;;;;;;18.05;12.82;;;;;;;;;;5017134;28;20398;-73
2021/12/16 16:55:11;;;;;;;20.75;13.40;;;;;;;;;;5013435;28;20108;-73
2021/12/16 16:57:38;;;;;;;19.38;13.10;;;;;;;;;;5029583;28;20025;-71
2021/12/16 17:00:26;;;;;;;23.25;15.13;;;;;;;;;;5033433;28;20104;-68
2021/12/16 17:02:56;;;;;;;17.52;12.00;;;;;;;;;;5006879;28;20231;-67
2021/12/16 17:05:28;;;;;;;17.83;12.80;;;;;;;;;;5014128;28;20445;-69
2021/12/16 17:07:53;;;;;;;19.13;13.32;;;;;;;;;;5012441;28;20017;-66
2021/12/16 17:10:24;;;;;;;19.35;14.00;;;;;;;;;;5012327;28;20091;-71
2021/12/16 17:12:49;;;;;;;16.80;12.10;;;;;;;;;;5028391;28;20024;-72
2021/12/16 17:15:33;;;;;;;17.58;12.45;;;;;;;;;;5016270;28;20017;-70
2021/12/16 17:17:58;;;;;;;21.75;14.65;;;;;;;;;;5033488;28;20437;-76
2021/12/16 17:20:24;;;;;;;18.65;13.18;;;;;;;;;;5016356;28;20018;-71
2021/12/16 17:22:52;;;;;;;17.63;13.05;;;;;;;;;;5015928;28;20029;-69
2021/12/16 17:25:19;;;;;;;13.35;10.70;;;;;;;;;;5015348;28;20367;-73
2021/12/16 17:27:48;;;;;;;12.82;9.90;;;;;;;;;;5016405;28;20013;-71
2021/12/16 17:30:20;;;;;;;14.55;10.90;;;;;;;;;;5024942;28;20022;-71
2021/12/16 17:32:46;;;;;;;13.27;10.98;;;;;;;;;;5033814;28;20017;-72
2021/12/16 17:35:17;;;;;;;16.02;12.43;;;;;;;;;;5026905;28;20546;-73
2021/12/16 17:37:44;;;;;;;16.05;12.35;;;;;;;;;;5032095;28;20037;-72
2021/12/16 17:40:14;;;;;;;17.95;12.55;;;;;;;;;;5030013;28;20432;-72
2021/12/16 17:42:45;;;;;;;16.13;12.18;;;;;;;;;;5016131;28;20014;-72
2021/12/16 17:45:22;;;;;;;13.13;10.45;;;;;;;;;;5032361;28;20131;-72
2021/12/16 17:47:47;;;;;;;15.00;10.38;;;;;;;;;;5024686;28;20079;-72
2021/12/16 17:50:15;;;;;;;14.18;10.70;;;;;;;;;;5015074;28;20147;-70
2021/12/16 17:52:40;;;;;;;13.75;10.20;;;;;;;;;;5016096;28;20030;-74
2021/12/16 17:55:10;;;;;;;12.52;8.73;;;;;;;;;;5032937;28;20030;-71
2021/12/16 17:57:40;;;;;;;13.55;10.30;;;;;;;;;;5034154;28;20022;-71
2021/12/16 18:00:09;;;;;;;14.98;11.32;;;;;;;;;;5014452;28;20103;-70
2021/12/16 18:02:34;;;;;;;16.15;12.07;;;;;;;;;;5033167;28;20036;-70
2021/12/16 18:05:01;;;;;;;19.05;12.90;;;;;;;;;;5033055;28;20022;-70
2021/12/16 18:07:27;;;;;;;18.30;12.70;;;;;;;;;;5016005;28;20029;-70
2021/12/16 18:09:54;;;;;;;17.38;12.73;;;;;;;;;;5009698;28;20193;-71
2021/12/16 18:12:25;;;;;;;21.27;14.05;;;;;;;;;;5013998;28;20441;-70